sensor_id;sensor_type;location;lat;lon;timestamp;pressure;altitude;pressure_sealevel;temperature;humidity
54876;BME280;40764;48.472;8.166;2023-02-26T00:05:43;97703.03;;;1.14;62.81
54876;BME280;40764;48.472;8.166;2023-02-26T00:11:44;97705.09;;;1.07;63.18
54876;BME280;40764;48.472;8.166;2023-02-26T00:24:37;97708.97;;;0.94;61.96
54876;BME280;40764;48.472;8.166;2023-02-26T00:30:38;97712.84;;;0.86;63.08
54876;BME280;40764;48.472;8.166;2023-02-26T00:36:56;97701.44;;;0.63;63.78
54876;BME280;40764;48.472;8.166;2023-02-26T00:43:06;97704.09;;;0.46;64.37
54876;BME280;40764;48.472;8.166;2023-02-26T00:55:35;97706.09;;;0.22;66.63
54876;BME280;40764;48.472;8.166;2023-02-26T01:01:36;97709.13;;;0.25;66.31
54876;BME280;40764;48.472;8.166;2023-02-26T01:08:01;97695.78;;;0.47;64.35
54876;BME280;40764;48.472;8.166;2023-02-26T01:14:05;97705.03;;;0.23;65.88
54876;BME280;40764;48.472;8.166;2023-02-26T01:20:16;97698.81;;;0.34;66.08
54876;BME280;40764;48.472;8.166;2023-02-26T01:26:18;97690.38;;;0.14;66.95
54876;BME280;40764;48.472;8.166;2023-02-26T01:32:25;97694.81;;;0.37;66.89
54876;BME280;40764;48.472;8.166;2023-02-26T01:38:46;97697.84;;;0.12;67.85
54876;BME280;40764;48.472;8.166;2023-02-26T01:45:03;97690.13;;;0.15;68.90
54876;BME280;40764;48.472;8.166;2023-02-26T01:51:09;97692.66;;;-0.07;68.21
54876;BME280;40764;48.472;8.166;2023-02-26T01:57:16;97689.31;;;-0.14;69.34
54876;BME280;40764;48.472;8.166;2023-02-26T02:03:20;97684.56;;;-0.35;69.78
54876;BME280;40764;48.472;8.166;2023-02-26T02:09:21;97688.50;;;-0.14;68.30
54876;BME280;40764;48.472;8.166;2023-02-26T02:15:44;97694.88;;;-0.04;68.28
54876;BME280;40764;48.472;8.166;2023-02-26T02:40:21;97714.06;;;-0.75;72.54
54876;BME280;40764;48.472;8.166;2023-02-26T02:46:25;97727.63;;;-0.82;73.59
54876;BME280;40764;48.472;8.166;2023-02-26T02:52:34;97727.16;;;-0.79;73.63
54876;BME280;40764;48.472;8.166;2023-02-26T02:58:47;97732.81;;;-1.22;75.55
54876;BME280;40764;48.472;8.166;2023-02-26T03:04:48;97731.06;;;-0.58;74.46
54876;BME280;40764;48.472;8.166;2023-02-26T03:10:49;97733.78;;;-0.93;75.38
54876;BME280;40764;48.472;8.166;2023-02-26T03:17:05;97744.19;;;-0.85;74.88
54876;BME280;40764;48.472;8.166;2023-02-26T03:23:13;97744.16;;;-0.97;74.63
54876;BME280;40764;48.472;8.166;2023-02-26T03:29:37;97747.31;;;-0.65;73.91
54876;BME280;40764;48.472;8.166;2023-02-26T03:36:06;97750.22;;;-1.01;74.51
54876;BME280;40764;48.472;8.166;2023-02-26T03:42:19;97755.91;;;-1.21;74.93
54876;BME280;40764;48.472;8.166;2023-02-26T03:48:24;97756.03;;;-1.28;75.19
54876;BME280;40764;48.472;8.166;2023-02-26T03:54:30;97756.09;;;-1.46;76.75
54876;BME280;40764;48.472;8.166;2023-02-26T04:00:32;97770.06;;;-1.56;76.75
54876;BME280;40764;48.472;8.166;2023-02-26T04:06:35;97773.38;;;-1.42;76.00
54876;BME280;40764;48.472;8.166;2023-02-26T04:12:36;97771.50;;;-1.41;76.36
54876;BME280;40764;48.472;8.166;2023-02-26T04:18:37;97782.38;;;-1.66;76.93
54876;BME280;40764;48.472;8.166;2023-02-26T04:24:37;97772.47;;;-1.36;75.36
54876;BME280;40764;48.472;8.166;2023-02-26T04:30:37;97773.22;;;-1.47;75.50
54876;BME280;40764;48.472;8.166;2023-02-26T04:36:40;97783.91;;;-1.59;76.46
54876;BME280;40764;48.472;8.166;2023-02-26T04:42:41;97795.13;;;-1.50;76.59
54876;BME280;40764;48.472;8.166;2023-02-26T04:48:41;97797.94;;;-1.45;75.70
54876;BME280;40764;48.472;8.166;2023-02-26T04:54:41;97802.81;;;-1.53;75.40
54876;BME280;40764;48.472;8.166;2023-02-26T05:00:42;97803.28;;;-1.57;75.35
54876;BME280;40764;48.472;8.166;2023-02-26T05:06:42;97796.75;;;-1.79;76.86
54876;BME280;40764;48.472;8.166;2023-02-26T05:12:42;97807.34;;;-1.54;75.89
54876;BME280;40764;48.472;8.166;2023-02-26T05:18:43;97812.31;;;-1.39;73.28
54876;BME280;40764;48.472;8.166;2023-02-26T05:24:44;97801.56;;;-1.09;73.03
54876;BME280;40764;48.472;8.166;2023-02-26T05:30:44;97816.44;;;-1.25;74.21
54876;BME280;40764;48.472;8.166;2023-02-26T05:36:44;97835.50;;;-1.15;73.91
54876;BME280;40764;48.472;8.166;2023-02-26T05:42:45;97832.94;;;-1.10;71.95
54876;BME280;40764;48.472;8.166;2023-02-26T05:48:45;97837.38;;;-0.92;70.92
54876;BME280;40764;48.472;8.166;2023-02-26T05:54:45;97846.16;;;-0.85;70.47
54876;BME280;40764;48.472;8.166;2023-02-26T06:00:46;97852.78;;;-0.87;70.43
54876;BME280;40764;48.472;8.166;2023-02-26T06:06:46;97857.63;;;-0.78;68.05
54876;BME280;40764;48.472;8.166;2023-02-26T06:12:47;97869.44;;;-0.44;66.35
54876;BME280;40764;48.472;8.166;2023-02-26T06:18:47;97873.06;;;-0.38;66.36
54876;BME280;40764;48.472;8.166;2023-02-26T06:24:48;97877.59;;;-0.50;66.22
54876;BME280;40764;48.472;8.166;2023-02-26T06:30:51;97880.66;;;-0.35;66.26
54876;BME280;40764;48.472;8.166;2023-02-26T06:36:52;97882.72;;;-0.02;64.93
54876;BME280;40764;48.472;8.166;2023-02-26T06:42:52;97893.97;;;0.07;64.47
54876;BME280;40764;48.472;8.166;2023-02-26T06:48:52;97897.81;;;-0.01;64.61
54876;BME280;40764;48.472;8.166;2023-02-26T06:54:53;97908.31;;;0.24;64.31
54876;BME280;40764;48.472;8.166;2023-02-26T07:00:53;97917.75;;;0.38;63.06
54876;BME280;40764;48.472;8.166;2023-02-26T07:06:53;97922.81;;;-0.01;62.56
54876;BME280;40764;48.472;8.166;2023-02-26T07:12:54;97921.06;;;-0.18;63.19
54876;BME280;40764;48.472;8.166;2023-02-26T07:18:54;97921.75;;;0.24;63.14
54876;BME280;40764;48.472;8.166;2023-02-26T07:24:54;97928.75;;;0.25;62.95
54876;BME280;40764;48.472;8.166;2023-02-26T07:30:56;97940.19;;;0.44;62.25
54876;BME280;40764;48.472;8.166;2023-02-26T07:36:56;97943.50;;;0.74;59.97
54876;BME280;40764;48.472;8.166;2023-02-26T07:42:58;97955.38;;;1.02;59.34
54876;BME280;40764;48.472;8.166;2023-02-26T07:48:58;97952.19;;;1.05;60.80
54876;BME280;40764;48.472;8.166;2023-02-26T07:54:59;97967.25;;;0.89;61.67
54876;BME280;40764;48.472;8.166;2023-02-26T08:00:59;97965.97;;;1.20;60.33
54876;BME280;40764;48.472;8.166;2023-02-26T08:06:59;97963.03;;;1.21;60.28
54876;BME280;40764;48.472;8.166;2023-02-26T08:13:00;97961.72;;;0.96;60.43
54876;BME280;40764;48.472;8.166;2023-02-26T08:19:01;97960.25;;;1.33;60.28
54876;BME280;40764;48.472;8.166;2023-02-26T08:25:01;97953.25;;;1.04;59.29
54876;BME280;40764;48.472;8.166;2023-02-26T08:31:02;97946.81;;;1.05;58.90
54876;BME280;40764;48.472;8.166;2023-02-26T08:37:03;97942.97;;;1.29;58.43
54876;BME280;40764;48.472;8.166;2023-02-26T08:43:03;97958.69;;;1.20;58.52
54876;BME280;40764;48.472;8.166;2023-02-26T08:49:03;97965.38;;;1.18;58.22
54876;BME280;40764;48.472;8.166;2023-02-26T08:55:04;97965.69;;;1.67;58.38
54876;BME280;40764;48.472;8.166;2023-02-26T09:01:04;97964.16;;;1.88;57.52
54876;BME280;40764;48.472;8.166;2023-02-26T09:07:05;97955.25;;;2.04;57.10
54876;BME280;40764;48.472;8.166;2023-02-26T09:13:05;97967.34;;;1.84;57.44
54876;BME280;40764;48.472;8.166;2023-02-26T09:19:06;97954.34;;;2.15;56.20
54876;BME280;40764;48.472;8.166;2023-02-26T09:25:07;97957.97;;;2.04;56.13
54876;BME280;40764;48.472;8.166;2023-02-26T09:31:07;97963.91;;;2.06;55.75
54876;BME280;40764;48.472;8.166;2023-02-26T09:37:08;97969.78;;;2.36;55.20
54876;BME280;40764;48.472;8.166;2023-02-26T09:43:27;97977.03;;;2.74;54.21
54876;BME280;40764;48.472;8.166;2023-02-26T09:49:52;97982.47;;;1.85;53.14
54876;BME280;40764;48.472;8.166;2023-02-26T09:56:00;97992.34;;;1.97;54.33
54876;BME280;40764;48.472;8.166;2023-02-26T10:08:26;97995.44;;;1.43;56.49
54876;BME280;40764;48.472;8.166;2023-02-26T10:26:44;98009.31;;;2.47;56.99
54876;BME280;40764;48.472;8.166;2023-02-26T10:39:14;98027.38;;;2.47;56.96
54876;BME280;40764;48.472;8.166;2023-02-26T10:45:38;98042.03;;;1.55;59.00
54876;BME280;40764;48.472;8.166;2023-02-26T10:51:39;98056.09;;;2.03;60.12
54876;BME280;40764;48.472;8.166;2023-02-26T10:57:45;98059.41;;;1.93;62.89
54876;BME280;40764;48.472;8.166;2023-02-26T11:03:50;98070.47;;;1.63;64.10
54876;BME280;40764;48.472;8.166;2023-02-26T11:09:55;98071.94;;;1.71;63.74
54876;BME280;40764;48.472;8.166;2023-02-26T11:16:00;98064.19;;;2.03;63.22
54876;BME280;40764;48.472;8.166;2023-02-26T11:22:03;98070.22;;;2.10;60.61
54876;BME280;40764;48.472;8.166;2023-02-26T11:28:33;98052.94;;;1.77;62.20
54876;BME280;40764;48.472;8.166;2023-02-26T11:34:35;98044.38;;;2.64;60.87
54876;BME280;40764;48.472;8.166;2023-02-26T11:40:44;98055.72;;;1.99;59.12
54876;BME280;40764;48.472;8.166;2023-02-26T11:46:52;98046.66;;;2.72;58.36
54876;BME280;40764;48.472;8.166;2023-02-26T11:53:03;98065.00;;;2.37;60.44
54876;BME280;40764;48.472;8.166;2023-02-26T11:59:23;98050.53;;;2.43;57.23
54876;BME280;40764;48.472;8.166;2023-02-26T12:05:25;98049.06;;;2.35;57.39
54876;BME280;40764;48.472;8.166;2023-02-26T12:11:43;98056.66;;;2.38;59.14
54876;BME280;40764;48.472;8.166;2023-02-26T12:18:20;98067.47;;;2.38;56.99
54876;BME280;40764;48.472;8.166;2023-02-26T12:31:17;98068.44;;;2.32;56.98
54876;BME280;40764;48.472;8.166;2023-02-26T12:43:48;98078.81;;;2.40;55.83
54876;BME280;40764;48.472;8.166;2023-02-26T13:21:36;98073.75;;;2.44;58.62
54876;BME280;40764;48.472;8.166;2023-02-26T13:27:39;98071.16;;;2.32;59.38
54876;BME280;40764;48.472;8.166;2023-02-26T13:33:43;98071.28;;;2.42;59.15
54876;BME280;40764;48.472;8.166;2023-02-26T13:52:27;98081.97;;;3.09;57.69
54876;BME280;40764;48.472;8.166;2023-02-26T13:58:33;98090.72;;;2.28;59.05
54876;BME280;40764;48.472;8.166;2023-02-26T14:04:49;98094.16;;;2.23;60.54
54876;BME280;40764;48.472;8.166;2023-02-26T14:11:03;98096.44;;;2.31;60.73
54876;BME280;40764;48.472;8.166;2023-02-26T14:29:41;98101.91;;;2.87;59.05
54876;BME280;40764;48.472;8.166;2023-02-26T14:35:46;98093.03;;;2.69;60.56
54876;BME280;40764;48.472;8.166;2023-02-26T14:41:48;98112.56;;;2.76;58.31
54876;BME280;40764;48.472;8.166;2023-02-26T14:47:49;98103.63;;;3.53;55.50
54876;BME280;40764;48.472;8.166;2023-02-26T15:00:24;98131.13;;;2.73;57.13
54876;BME280;40764;48.472;8.166;2023-02-26T15:12:56;98135.88;;;2.32;57.30
54876;BME280;40764;48.472;8.166;2023-02-26T15:25:42;98143.47;;;3.02;55.09
54876;BME280;40764;48.472;8.166;2023-02-26T15:31:52;98148.03;;;3.02;55.89
54876;BME280;40764;48.472;8.166;2023-02-26T15:37:59;98155.75;;;2.43;54.86
54876;BME280;40764;48.472;8.166;2023-02-26T15:44:13;98149.94;;;2.85;53.33
54876;BME280;40764;48.472;8.166;2023-02-26T15:50:29;98147.56;;;4.14;50.91
54876;BME280;40764;48.472;8.166;2023-02-26T15:56:38;98156.09;;;4.60;50.10
54876;BME280;40764;48.472;8.166;2023-02-26T16:02:40;98156.22;;;4.16;51.08
54876;BME280;40764;48.472;8.166;2023-02-26T16:08:41;98162.19;;;3.48;51.40
54876;BME280;40764;48.472;8.166;2023-02-26T16:15:03;98168.41;;;3.09;52.48
54876;BME280;40764;48.472;8.166;2023-02-26T16:21:08;98170.47;;;3.19;51.62
54876;BME280;40764;48.472;8.166;2023-02-26T16:27:29;98179.00;;;2.61;51.15
54876;BME280;40764;48.472;8.166;2023-02-26T16:33:36;98196.22;;;2.43;52.51
54876;BME280;40764;48.472;8.166;2023-02-26T16:39:43;98209.75;;;2.31;53.18
54876;BME280;40764;48.472;8.166;2023-02-26T16:45:48;98213.25;;;2.15;54.48
54876;BME280;40764;48.472;8.166;2023-02-26T16:51:50;98220.19;;;1.99;55.38
54876;BME280;40764;48.472;8.166;2023-02-26T16:57:52;98236.91;;;1.84;55.94
54876;BME280;40764;48.472;8.166;2023-02-26T17:03:59;98244.84;;;1.91;56.34
54876;BME280;40764;48.472;8.166;2023-02-26T17:10:16;98240.22;;;2.15;55.46
54876;BME280;40764;48.472;8.166;2023-02-26T17:16:18;98253.78;;;1.68;55.72
54876;BME280;40764;48.472;8.166;2023-02-26T17:22:26;98260.72;;;1.76;56.22
54876;BME280;40764;48.472;8.166;2023-02-26T17:28:33;98268.47;;;1.49;57.31
54876;BME280;40764;48.472;8.166;2023-02-26T17:34:35;98274.06;;;1.71;57.57
54876;BME280;40764;48.472;8.166;2023-02-26T17:40:36;98289.22;;;1.48;57.37
54876;BME280;40764;48.472;8.166;2023-02-26T17:46:37;98290.03;;;1.49;56.65
54876;BME280;40764;48.472;8.166;2023-02-26T17:52:37;98295.66;;;1.24;56.23
54876;BME280;40764;48.472;8.166;2023-02-26T17:58:38;98294.25;;;1.21;55.48
54876;BME280;40764;48.472;8.166;2023-02-26T18:04:45;98299.94;;;1.13;55.14
54876;BME280;40764;48.472;8.166;2023-02-26T18:10:45;98298.56;;;1.22;55.18
54876;BME280;40764;48.472;8.166;2023-02-26T18:16:46;98293.16;;;1.11;55.02
54876;BME280;40764;48.472;8.166;2023-02-26T18:22:47;98290.81;;;1.14;54.26
54876;BME280;40764;48.472;8.166;2023-02-26T18:28:59;98294.06;;;0.93;55.18
54876;BME280;40764;48.472;8.166;2023-02-26T18:35:06;98301.56;;;0.91;54.73
54876;BME280;40764;48.472;8.166;2023-02-26T18:41:14;98314.16;;;0.79;55.28
54876;BME280;40764;48.472;8.166;2023-02-26T18:47:18;98315.34;;;0.83;56.03
54876;BME280;40764;48.472;8.166;2023-02-26T18:53:26;98327.47;;;0.74;57.18
54876;BME280;40764;48.472;8.166;2023-02-26T18:59:40;98329.44;;;0.67;56.33
54876;BME280;40764;48.472;8.166;2023-02-26T19:06:04;98318.19;;;0.58;56.55
54876;BME280;40764;48.472;8.166;2023-02-26T19:12:09;98314.16;;;0.49;56.76
54876;BME280;40764;48.472;8.166;2023-02-26T19:18:16;98329.38;;;0.55;56.99
54876;BME280;40764;48.472;8.166;2023-02-26T19:24:36;98335.09;;;0.47;57.17
54876;BME280;40764;48.472;8.166;2023-02-26T19:30:39;98344.47;;;0.56;57.08
54876;BME280;40764;48.472;8.166;2023-02-26T19:36:43;98361.97;;;0.65;56.96
54876;BME280;40764;48.472;8.166;2023-02-26T19:42:53;98364.00;;;0.51;56.43
54876;BME280;40764;48.472;8.166;2023-02-26T19:49:03;98370.84;;;0.36;57.04
54876;BME280;40764;48.472;8.166;2023-02-26T19:55:09;98381.72;;;0.41;56.71
54876;BME280;40764;48.472;8.166;2023-02-26T20:07:56;98403.78;;;0.31;56.88
54876;BME280;40764;48.472;8.166;2023-02-26T20:14:02;98408.75;;;0.27;56.45
54876;BME280;40764;48.472;8.166;2023-02-26T20:20:33;98402.88;;;0.37;57.05
54876;BME280;40764;48.472;8.166;2023-02-26T20:26:51;98399.13;;;0.20;56.44
54876;BME280;40764;48.472;8.166;2023-02-26T20:33:02;98407.56;;;0.42;56.49
54876;BME280;40764;48.472;8.166;2023-02-26T20:39:03;98406.03;;;0.34;56.59
54876;BME280;40764;48.472;8.166;2023-02-26T20:45:09;98415.50;;;0.37;56.32
54876;BME280;40764;48.472;8.166;2023-02-26T20:51:10;98424.31;;;0.44;56.27
54876;BME280;40764;48.472;8.166;2023-02-26T20:57:11;98423.25;;;0.63;55.82
54876;BME280;40764;48.472;8.166;2023-02-26T21:03:14;98423.84;;;0.47;56.77
54876;BME280;40764;48.472;8.166;2023-02-26T21:09:17;98417.00;;;0.33;57.27
54876;BME280;40764;48.472;8.166;2023-02-26T21:15:18;98416.81;;;0.27;57.20
54876;BME280;40764;48.472;8.166;2023-02-26T21:21:41;98428.34;;;0.35;57.62
54876;BME280;40764;48.472;8.166;2023-02-26T21:27:47;98420.75;;;0.32;57.86
54876;BME280;40764;48.472;8.166;2023-02-26T21:34:06;98415.50;;;0.37;57.03
54876;BME280;40764;48.472;8.166;2023-02-26T21:40:16;98424.03;;;0.34;57.55
54876;BME280;40764;48.472;8.166;2023-02-26T21:46:42;98428.78;;;0.13;58.00
54876;BME280;40764;48.472;8.166;2023-02-26T21:52:55;98421.97;;;-0.08;58.55
54876;BME280;40764;48.472;8.166;2023-02-26T21:58:56;98410.22;;;-0.13;58.54
54876;BME280;40764;48.472;8.166;2023-02-26T22:05:02;98410.19;;;0.12;58.15
54876;BME280;40764;48.472;8.166;2023-02-26T22:11:05;98402.03;;;-0.18;58.90
54876;BME280;40764;48.472;8.166;2023-02-26T22:17:08;98391.72;;;-0.21;59.39
54876;BME280;40764;48.472;8.166;2023-02-26T22:23:09;98406.56;;;-0.19;59.70
54876;BME280;40764;48.472;8.166;2023-02-26T22:29:12;98398.56;;;-0.25;60.03
54876;BME280;40764;48.472;8.166;2023-02-26T22:35:13;98413.88;;;-0.26;59.68
54876;BME280;40764;48.472;8.166;2023-02-26T22:41:22;98414.03;;;-0.21;59.75
54876;BME280;40764;48.472;8.166;2023-02-26T22:47:22;98411.78;;;-0.24;60.28
54876;BME280;40764;48.472;8.166;2023-02-26T22:53:24;98408.53;;;-0.33;60.58
54876;BME280;40764;48.472;8.166;2023-02-26T22:59:24;98420.72;;;-0.30;60.51
54876;BME280;40764;48.472;8.166;2023-02-26T23:05:25;98421.13;;;-0.26;61.30
54876;BME280;40764;48.472;8.166;2023-02-26T23:11:25;98416.88;;;-0.41;60.93
54876;BME280;40764;48.472;8.166;2023-02-26T23:17:28;98427.47;;;-0.03;60.03
54876;BME280;40764;48.472;8.166;2023-02-26T23:23:28;98426.44;;;-0.45;61.00
54876;BME280;40764;48.472;8.166;2023-02-26T23:29:28;98422.47;;;-0.42;61.54
54876;BME280;40764;48.472;8.166;2023-02-26T23:35:31;98403.19;;;-0.57;61.22
54876;BME280;40764;48.472;8.166;2023-02-26T23:41:32;98402.31;;;-0.51;62.07
54876;BME280;40764;48.472;8.166;2023-02-26T23:47:32;98407.41;;;-0.43;61.15
54876;BME280;40764;48.472;8.166;2023-02-26T23:53:39;98407.91;;;-0.53;62.28
54876;BME280;40764;48.472;8.166;2023-02-26T23:59:39;98411.19;;;-0.51;61.96
